Timeline UpdatesTrip UpdatesNews PostsPvt PostsTravel TipsAdmin PostsConv PostsFollowed PostsChat RequestsBlog PostsPNR Posts

Disclaimer
Search
 
 
Wed Jul 30, 2014 18:38:56 ISTHomeTrainsΣChainsAtlasPNRForumGalleryNewsFAQTripsMembersLoginFeedback
No Recent News for this Train
Other Trains in the News **new
Latest...
Cancelled from 23/5/14-25/5/14 #1106177
Thu May 22, 2014 (12:18AM)
⇐ Return Journey: Train# 75720

75401⇒75719/MaldaTown-Dinhata DMU

Dec 13 2013 (11:46PM)
Change Departure Station:
Change Arrival Station:
Post a Train Travel TipPost a Train Travel Tip **new
Post a Comment/Question/Picture/VideoPost a Comment/Question/Picture/Video
Inaugural Run
Fri Aug 02, 2013
Pantry/Catering
✕ NO Pantry Car
✕ NO Catering
RSA - Rake Sharing
Rake/Coach Composition
Loco
News    PNR    Forum    Time-Table    Availability    Fare Chart    Map    Arr/Dep History    Trips    Gallery    ΣChains    X/O    Timeline    
Travel Time: 8h 51m    44 halts    Distance: 300 km    Avg Speed: 33 km/hr
Type: DEMU
Zone: NFR/Northeast Frontier
Departs @ 09:54 (Avg 1h 5m late)
Platform# ???
SMTWTFS
Babhabgaon Halt/BAHN 
Arrives @ 18:45 (Avg 4h 12m late)
Platform# 1
SMTWTFS
Cooch Behar/COB 

44 halts. 46 intermediate Stations between Babhabgaon Halt and Cooch Behar

Show ALL intermediate Stations  Show Old Time-Table

#CodeStation NameX/OArrivesAvgDepartsAvgHaltPFDay#KmSpeedElevZoneAddress
1MLDTMalda Town (5)  -08:10+18--1-64.74330mERDist - Malda, West Bengal
2OMLFOld Malda Junction (3)X  08:18+1608:19+191m--1-59.06131mNFRDist - Malda, West Bengal
3ADFAdina (2)X  08:26+2208:27+231m--1-51.95633mNFRNational Highway 34, West Bengal
4EKIEklakhi Junction (4)  08:34+2608:35+301m--1-45.44133mNFRDistt. - Malda, West Bengal
5MBCMahananda Bridge (2)  08:39+3108:40+311m--1-42.65728mNFRMahananda, West Bengal
6KMRJKumarganj (2)  08:44+3308:45+391m--1-38.87228mNFRNational Highway 34, West Bengal
7SRPUSripur Halt (2)  08:49+3808:50+381m--1-34.04927mNFRSripur, West Bengal
8SMSamsi (2)  08:55+4008:56+481m--1-30.06032mNFRdist - Malda, West Bengal
9MFZMalahar  09:02+1:0409:03+1:041m--1-23.97531mNFRNational Highway 81, West Bengal
10BKRDBhaluka Road FO  09:08+5809:29+4221m--1-17.7-30mNFRBhaluka, West Bengal
11MQGMilangarh  09:30+5609:31+561m--1-14.24129mNFRMilangarh, West Bengal
12HCRHarischandrapurX  09:38+4309:39+461m--1-9.55731mNFRHarischandrapur, West Bengal
13KDPRKumedpur Junction (4)  09:47+5309:48+581m--1-1.92332mNFRDist. - Malda, West Bengal
14BAHN»Babhabgaon Halt»  09:53+1:0509:54+1:051m--10.07231mNFRBabhabgaon, West Bengal
15KWEKhurial (2)  09:58+1:0309:59+1:051m--14.85733mNFRKhurial, Bihar
16KMPHKamalpur Halt  10:02+1:2910:03+1:291m--17.79632mNFRKamalpur, Bihar
17AZRAzamnagar Road (2)X  10:06+1:1110:07+1:141m--112.55234mNFRAzamnagar, Bihar
18BWPBBhawanipur Bihar  10:12+1:3510:13+1:351m--116.84836mNFRBhawanipur, Bihar
19MFAMukuria Junction (2)  10:18+1:2010:19+1:271m--120.94332mNFRMukuria, Bihar
20BOEBarsoi Junction (3)X  10:25+1:1710:27+1:192m--125.17337mNFRdist- katihar, Bihar
21SJGMSanjay GramX  10:34+2:1610:35+2:161m--133.61934mNFRSanjay Gram, West Bengal
22SUDSudhani (2)  10:46+1:3310:47+1:371m--137.07538mNFRState Highway 65, Bihar
23AHLAjharail  10:52+2:3010:53+2:301m--143.23437mNFRNational Highway 34, West Bengal
24TETATelta (2)  10:58+1:4010:59+1:401m--146.06140mNFRRupauli, Bihar
25DLKDalkhola (3)X  11:07+1:3511:09+1:352m--154.26144mNFRDalkola, West Bengal
26SJKLSurja Kamal (2)  11:16+1:4511:17+1:481m--161.24244mNFRNational Highway 31, West Bengal
27KKAKanki (3)XO  11:28+1:4911:29+1:491m--168.91647mNFRKanki, West Bengal
28HWRHatwar (2)O  11:49+1:3611:50+1:371m--174.31546mNFRNational Highway 31, West Bengal
29KNEKishanGanj (3)X  12:23+5812:25+592m--182.76152mNFRKishanganj, Bihar
30PJPPanjipara (3)X  12:33+1:2312:34+1:271m--190.96655mNFRNational Highway 31, West Bengal
31GILGaisal (3)  12:42+1:3012:43+1:321m--199.65762mNFRNational Highway 31, West Bengal
32GEORGunjaria  12:49+1:3212:50+1:321m--1105.36864mNFRNational Highway 31, West Bengal
33AUBAluabari Road (2)X  12:57+1:3412:59+1:342m--1113.3580mNFRDist - uttar Dinajpur, West Bengal
34DBQDhulabari  13:04+3:0913:05+3:091m--1118.16468mNFRKishanganj, Bihar
35MXJMangurjanX  13:11+1:3613:12+1:401m--1124.56169mNFRMangurjan, West Bengal
36TMHTin Mile Hat  13:18+1:4313:19+1:461m--1130.76774mNFRTin Mile, West Bengal
37DMZDumdangiX  13:27+1:5113:28+1:561m--1139.56886mNFRHaftia Rd, West Bengal
38CATChattar Hat (2)  13:36+1:5913:37+2:061m--1148.66191mNFRChattar, West Bengal
39NJBNijbariX  13:44+2:0813:45+2:081m--1155.837104mNFRFulbari Ghoshpukur Bypass, West Bengal
40RNIRangapani (2)  13:56+2:0813:57+2:201m--1162.616114mNFRSILIGURI Dist - Darjeeling, West Bengal
41NJPNew Jalpaiguri Junction (8)X  14:25+1:3014:35+1:3210m--1170.052114mNFRCity-Siliguri . Dist-Jalpaiguri, West Bengal
42ABFCAmbari Falakata (2)X  14:45+2:2414:46+2:271m--1178.763105mNFRdist - jalpaiguri 735201, West Bengal
43BLKBelakoba (2)X  14:55+2:2914:56+2:131m11188.11499mNFRDist - jalpaiguri, West Bengal
44RQJRaninagar Jalpaiguri Junction (3)X  15:30+2:1115:31+2:171m--1195.87291mNFRDIST - Jalpaiguri, West Bengal
45JPEJalpaiguri Road (2)  15:37+2:1415:38+2:181m11203.06689mNFRdist - Jalpaiguri 735102, West Bengal
46NQHNew Domohani (2)X  15:45+2:2915:46+2:301m11210.71984mNFRDist - Jalpaiguri, West Bengal
47NMXNew Maynaguri (2)  15:58+2:1215:59+2:171m--1214.55886mNFRDist - Jalpaiguri, West Bengal
48BYXABetgara (2)  16:04+2:3316:05+2:351m11219.36589mNFRDIST - Jalpaiguri, West Bengal
49ATMAltagram (2)X  16:13+2:3716:14+2:411m--1228.02785mNFRDist - Jalpaiguri, West Bengal
50DQGDhupguri (2)  16:29+2:2516:30+2:271m--1234.86875mNFRDist - Jalpaiguri, West Bengal
51KLGRKolai Gram (2)X  16:36+2:3616:37+2:391m--1241.53675mNFRDist : Jalpaiguri, West Bengal
52SXXSalbari (2)  16:48+2:3716:49+2:381m--1248.26769mNFRDist - jalpaiguri, West Bengal
53FLKFalakata (3)  16:57+2:4016:58+2:461m--1257.27867mNFRDist - Alipurduar, West Bengal
54GUZGumanihat (2)XO  17:06+2:4917:07+2:501m11267.61160mNFRDist : Cooch Behar, West Bengal
55GDXGhoksadanga (2)X  17:35+2:3417:36+2:371m--1272.84158mNFRDist : Cooch Behar, West Bengal
56SJRRSajherpar (2)  17:47+2:3517:48+2:371m--1280.32254mNFRDist : Cooch Behar, West Bengal
57PQZPundibari (1)  18:00+2:3318:01+2:351m11284.82553mNFRDist - Coochbehar, West Bengal
58NCBNew Cooch Behar Junction (5)  18:25+1:4818:30+1:465m--1295.01847mNFRDist : Cooch Behar-736101, West Bengal
59COB•Cooch Behar (1)•  18:45+4:1218:50+5:105m11299.55146mNFRDist : Cooch Behar, West Bengal
60DWTDewan Hat (1)  19:02-19:03-1m11309.74441mNFRdist - Coachbehar, West Bengal
61VTGBhetaguri (1)  19:08-19:09-1m11313.43643mNFRDist : Cooch Behar, West Bengal
62DCHDinhatta College Halt (1)  19:20-19:21-1m11320.01638mNFRDinhata, West Bengal
63DHHDinhata (2)  19:30+2:29---1322.4-39mNFRDist - Coochbehar, West Bengal
Scroll to Top
Scroll to Bottom